createdAt,value
2022-08-18T00:00:15.240Z,98883.50
2022-08-18T00:01:16.490Z,98880.24
2022-08-18T00:02:20.646Z,98883.95
2022-08-18T00:03:53.280Z,98884.98
2022-08-18T00:04:36.236Z,98882.30
2022-08-18T00:05:33.475Z,98886.02
2022-08-18T00:06:38.291Z,98875.31
2022-08-18T00:07:41.061Z,98876.38
2022-08-18T00:08:45.576Z,98874.73
2022-08-18T00:09:48.222Z,98883.17
2022-08-18T00:10:51.427Z,98877.21
2022-08-18T00:11:54.061Z,98876.18
2022-08-18T00:12:58.615Z,98885.24
2022-08-18T00:14:01.237Z,98884.88
2022-08-18T00:15:03.852Z,98884.66
2022-08-18T00:16:07.232Z,98886.52
2022-08-18T00:17:10.312Z,98886.14
2022-08-18T00:18:12.883Z,98881.61
2022-08-18T00:19:15.546Z,98878.56
2022-08-18T00:20:19.451Z,98885.77
2022-08-18T00:21:22.210Z,98882.92
2022-08-18T00:22:25.093Z,98881.28
2022-08-18T00:23:27.716Z,98880.25
2022-08-18T00:24:30.427Z,98887.25
2022-08-18T00:25:33.094Z,98882.11
2022-08-18T00:26:37.102Z,98883.95
2022-08-18T00:27:39.972Z,98883.95
2022-08-18T00:28:42.639Z,98886.63
2022-08-18T00:29:45.319Z,98889.10
2022-08-18T00:30:48.269Z,98878.61
2022-08-18T00:31:52.786Z,98884.58
2022-08-18T00:32:55.322Z,98880.86
2022-08-18T00:34:00.625Z,98877.12
2022-08-18T00:35:03.262Z,98876.30
2022-08-18T00:36:06.268Z,98875.27
2022-08-18T00:37:08.910Z,98880.63
2022-08-18T00:38:23.388Z,98879.80
2022-08-18T00:39:16.095Z,98878.98
2022-08-18T00:40:20.083Z,98887.01
2022-08-18T00:41:23.991Z,98878.39
2022-08-18T00:42:27.538Z,98878.61
2022-08-18T00:43:31.376Z,98874.31
2022-08-18T00:44:33.983Z,98878.84
2022-08-18T00:45:36.614Z,98874.73
2022-08-18T00:46:40.015Z,98877.65
2022-08-18T00:47:43.359Z,98875.19
2022-08-18T00:48:48.257Z,98873.78
2022-08-18T00:49:50.568Z,98872.37
2022-08-18T00:50:53.444Z,98872.78
2022-08-18T00:51:56.116Z,98878.14
2022-08-18T00:52:58.786Z,98872.20
2022-08-18T00:54:01.453Z,98878.58
2022-08-18T00:55:04.469Z,98873.47
2022-08-18T00:56:07.610Z,98881.70
2022-08-18T00:57:10.284Z,98881.50
2022-08-18T00:58:12.954Z,98884.38
2022-08-18T00:59:15.643Z,98870.42
2022-08-18T01:00:19.006Z,98880.50
2022-08-18T01:01:21.819Z,98874.19
2022-08-18T01:02:24.683Z,98877.45
2022-08-18T01:03:27.670Z,98881.39
2022-08-18T01:04:30.808Z,98870.08
2022-08-18T01:05:33.471Z,98876.70
2022-08-18T01:06:36.961Z,98874.23
2022-08-18T01:07:39.836Z,98869.12
2022-08-18T01:08:42.512Z,98874.47
2022-08-18T01:09:45.195Z,98877.14
2022-08-18T01:10:49.073Z,98872.20
2022-08-18T01:11:52.049Z,98871.41
2022-08-18T01:12:55.159Z,98868.94
2022-08-18T01:13:57.655Z,98868.36
2022-08-18T01:15:00.676Z,98880.66
2022-08-18T01:16:03.697Z,98884.61
2022-08-18T01:17:06.314Z,98876.59
2022-08-18T01:18:08.919Z,98881.11
2022-08-18T01:19:11.514Z,98886.66
2022-08-18T01:20:14.905Z,98888.75
2022-08-18T01:21:17.609Z,98878.26
2022-08-18T01:22:20.583Z,98880.34
2022-08-18T01:23:25.011Z,98876.03
2022-08-18T01:24:27.669Z,98880.55
2022-08-18T01:25:30.332Z,98880.55
2022-08-18T01:26:33.412Z,98881.37
2022-08-18T01:27:36.083Z,98882.41
2022-08-18T01:28:38.746Z,98878.11
2022-08-18T01:29:43.527Z,98877.30
2022-08-18T01:30:46.238Z,98880.17
2022-08-18T01:31:54.145Z,98878.52
2022-08-18T01:32:53.321Z,98880.61
2022-08-18T01:33:56.087Z,98879.78
2022-08-18T01:34:58.764Z,98879.58
2022-08-18T01:36:01.447Z,98876.73
2022-08-18T01:37:04.095Z,98885.19
2022-08-18T01:38:06.663Z,98883.75
2022-08-18T01:39:09.193Z,98879.43
2022-08-18T01:41:26.002Z,98874.08
2022-08-18T01:41:27.426Z,98880.25
2022-08-18T01:42:21.746Z,98868.94
2022-08-18T01:43:24.721Z,98877.98
2022-08-18T01:44:27.699Z,98870.41
2022-08-18T01:45:30.368Z,98866.91
2022-08-18T01:46:33.354Z,98869.58
2022-08-18T01:47:47.416Z,98870.41
2022-08-18T01:48:40.527Z,98868.80
2022-08-18T01:49:43.289Z,98868.17
2022-08-18T01:50:46.478Z,98871.67
2022-08-18T01:51:49.146Z,98865.50
2022-08-18T01:52:51.786Z,98863.03
2022-08-18T01:53:54.388Z,98870.46
2022-08-18T01:54:56.945Z,98871.48
2022-08-18T01:55:59.523Z,98874.39
2022-08-18T01:57:02.827Z,98865.99
2022-08-18T01:58:05.483Z,98869.30
2022-08-18T01:59:08.140Z,98866.02
2022-08-18T02:00:12.575Z,98869.94
2022-08-18T02:01:15.670Z,98867.70
2022-08-18T02:02:18.799Z,98869.55
2022-08-18T02:03:21.436Z,98868.94
2022-08-18T02:04:34.927Z,98871.41
2022-08-18T02:05:28.556Z,98864.41
2022-08-18T02:06:33.881Z,98875.14
2022-08-18T02:07:36.647Z,98879.46
2022-08-18T02:08:39.529Z,98877.61
2022-08-18T02:09:44.047Z,98882.72
2022-08-18T02:10:48.210Z,98879.66
2022-08-18T02:11:50.918Z,98882.13
2022-08-18T02:12:55.435Z,98881.31
2022-08-18T02:13:58.408Z,98881.13
2022-08-18T02:15:01.101Z,98882.97
2022-08-18T02:16:04.059Z,98874.36
2022-08-18T02:17:06.727Z,98877.23
2022-08-18T02:18:09.394Z,98882.58
2022-08-18T02:19:12.066Z,98874.80
2022-08-18T02:20:15.348Z,98881.75
2022-08-18T02:21:19.116Z,98877.67
2022-08-18T02:22:22.290Z,98876.84
2022-08-18T02:23:24.890Z,98882.19
2022-08-18T02:24:27.557Z,98884.27
2022-08-18T02:25:30.225Z,98881.98
2022-08-18T02:26:33.781Z,98889.17
2022-08-18T02:27:36.393Z,98884.27
2022-08-18T02:28:39.058Z,98895.34
2022-08-18T02:29:41.727Z,98889.61
2022-08-18T02:30:44.911Z,98886.11
2022-08-18T02:31:47.536Z,98885.48
2022-08-18T02:32:50.144Z,98881.80
2022-08-18T02:33:52.883Z,98887.14
2022-08-18T02:34:55.786Z,98886.55
2022-08-18T02:35:58.454Z,98893.30
2022-08-18T02:37:01.470Z,98891.66
2022-08-18T02:38:04.122Z,98890.63
2022-08-18T02:39:06.764Z,98887.14
2022-08-18T02:40:10.389Z,98890.83
2022-08-18T02:41:14.772Z,98891.66
2022-08-18T02:42:17.604Z,98899.07
2022-08-18T02:43:20.826Z,98896.17
2022-08-18T02:44:23.499Z,98896.20
2022-08-18T02:45:26.170Z,98894.75
2022-08-18T02:46:31.424Z,98891.88
2022-08-18T02:47:34.373Z,98899.86
2022-08-18T02:48:37.215Z,98898.17
2022-08-18T02:49:39.815Z,98893.27
2022-08-18T02:50:42.582Z,98889.95
2022-08-18T02:51:45.219Z,98893.45
2022-08-18T02:52:47.917Z,98896.52
2022-08-18T02:53:50.827Z,98889.90
2022-08-18T02:54:55.307Z,98895.15
2022-08-18T02:55:57.882Z,98896.74
2022-08-18T02:57:01.058Z,98894.20
2022-08-18T02:58:03.739Z,98896.59
2022-08-18T02:59:06.414Z,98887.87
2022-08-18T03:00:09.989Z,98891.27
2022-08-18T03:01:14.555Z,98894.70
2022-08-18T03:02:18.086Z,98891.00
2022-08-18T03:03:20.716Z,98888.05
2022-08-18T03:04:28.239Z,98890.79
2022-08-18T03:05:27.834Z,98890.02
2022-08-18T03:06:31.224Z,98900.17
2022-08-18T03:07:33.893Z,98897.78
2022-08-18T03:08:36.562Z,98902.84
2022-08-18T03:09:39.230Z,98896.73
2022-08-18T03:10:42.211Z,98894.42
2022-08-18T03:11:45.180Z,98896.28
2022-08-18T03:12:47.708Z,98889.59
2022-08-18T03:13:50.619Z,98896.44
2022-08-18T03:14:53.289Z,98894.48
2022-08-18T03:15:57.008Z,98896.86
2022-08-18T03:17:00.167Z,98899.81
2022-08-18T03:18:02.842Z,98897.73
2022-08-18T03:19:05.505Z,98893.77
2022-08-18T03:20:08.686Z,98904.28
2022-08-18T03:21:11.665Z,98898.00
2022-08-18T03:22:27.781Z,98900.25
2022-08-18T03:23:20.997Z,98899.21
2022-08-18T03:24:25.505Z,98902.47
2022-08-18T03:25:28.799Z,98902.93
2022-08-18T03:26:31.773Z,98897.78
2022-08-18T03:27:34.651Z,98901.28
2022-08-18T03:28:37.315Z,98897.17
2022-08-18T03:29:40.113Z,98896.14
2022-08-18T03:30:43.057Z,98896.89
2022-08-18T03:31:45.944Z,98899.64
2022-08-18T03:32:48.602Z,98899.34
2022-08-18T03:33:51.108Z,98904.39
2022-08-18T03:34:53.750Z,98903.00
2022-08-18T03:35:56.410Z,98900.84
2022-08-18T03:36:59.390Z,98901.91
2022-08-18T03:38:02.056Z,98898.16
2022-08-18T03:39:04.768Z,98902.84
2022-08-18T03:40:08.051Z,98896.09
2022-08-18T03:41:11.002Z,98896.91
2022-08-18T03:42:14.574Z,98897.59
2022-08-18T03:43:49.525Z,98902.34
2022-08-18T03:44:22.066Z,98896.41
2022-08-18T03:45:24.836Z,98900.21
2022-08-18T03:46:29.363Z,98910.56
2022-08-18T03:47:33.859Z,98901.03
2022-08-18T03:48:36.529Z,98898.20
2022-08-18T03:49:39.322Z,98904.38
2022-08-18T03:50:42.838Z,98900.73
2022-08-18T03:51:45.456Z,98901.03
2022-08-18T03:52:48.022Z,98908.83
2022-08-18T03:53:50.693Z,98909.47
2022-08-18T03:54:53.357Z,98908.40
2022-08-18T03:55:55.935Z,98908.85
2022-08-18T03:56:58.908Z,98909.67
2022-08-18T03:58:01.574Z,98906.09
2022-08-18T03:59:04.246Z,98903.34
2022-08-18T04:00:07.330Z,98906.30
2022-08-18T04:01:10.287Z,98907.39
2022-08-18T04:02:12.930Z,98906.64
2022-08-18T04:03:15.613Z,98904.94
2022-08-18T04:04:18.209Z,98911.16
2022-08-18T04:05:20.912Z,98905.22
2022-08-18T04:06:30.280Z,98909.55
2022-08-18T04:07:29.808Z,98909.19
2022-08-18T04:08:32.674Z,98898.69
2022-08-18T04:09:35.235Z,98902.55
2022-08-18T04:10:38.318Z,98902.44
2022-08-18T04:11:40.982Z,98906.08
2022-08-18T04:12:43.551Z,98911.30
2022-08-18T04:13:46.163Z,98911.11
2022-08-18T04:14:49.410Z,98913.21
2022-08-18T04:15:52.587Z,98919.53
2022-08-18T04:16:55.557Z,98919.06
2022-08-18T04:18:03.983Z,98915.00
2022-08-18T04:19:02.638Z,98914.05
2022-08-18T04:20:05.722Z,98915.91
2022-08-18T04:21:08.393Z,98909.03
2022-08-18T04:22:11.164Z,98909.16
2022-08-18T04:23:15.913Z,98911.37
2022-08-18T04:24:18.552Z,98902.80
2022-08-18T04:25:21.219Z,98904.75
2022-08-18T04:26:25.836Z,98913.02
2022-08-18T04:27:28.503Z,98910.50
2022-08-18T04:28:31.167Z,98908.03
2022-08-18T04:29:34.038Z,98908.26
2022-08-18T04:30:36.882Z,98902.19
2022-08-18T04:31:39.488Z,98907.09
2022-08-18T04:32:42.362Z,98904.88
2022-08-18T04:33:45.028Z,98906.98
2022-08-18T04:34:47.699Z,98901.22
2022-08-18T04:35:50.262Z,98904.03
2022-08-18T04:36:53.029Z,98906.84
2022-08-18T04:37:55.783Z,98907.97
2022-08-18T04:38:58.691Z,98912.05
2022-08-18T04:40:01.430Z,98904.32
2022-08-18T04:41:04.338Z,98897.19
2022-08-18T04:42:07.002Z,98904.17
2022-08-18T04:43:10.587Z,98900.66
2022-08-18T04:44:13.565Z,98896.78
2022-08-18T04:45:16.280Z,98893.48
2022-08-18T04:46:22.740Z,98898.32
2022-08-18T04:47:25.256Z,98891.34
2022-08-18T04:48:27.929Z,98903.45
2022-08-18T04:49:31.214Z,98900.45
2022-08-18T04:50:34.807Z,98898.33
2022-08-18T04:52:34.362Z,98900.70
2022-08-18T04:52:42.127Z,98902.33
2022-08-18T04:53:45.065Z,98896.89
2022-08-18T04:54:47.732Z,98897.97
2022-08-18T04:55:50.431Z,98897.47
2022-08-18T04:56:53.276Z,98897.67
2022-08-18T04:57:55.951Z,98894.97
2022-08-18T04:58:58.574Z,98896.33
2022-08-18T05:00:01.184Z,98896.63
2022-08-18T05:01:04.311Z,98892.72
2022-08-18T05:02:10.230Z,98896.52
2022-08-18T05:03:11.847Z,98896.68
2022-08-18T05:04:14.479Z,98899.88
2022-08-18T05:05:17.088Z,98896.78
2022-08-18T05:06:20.646Z,98898.80
2022-08-18T05:07:23.207Z,98899.29
2022-08-18T05:08:25.816Z,98898.60
2022-08-18T05:09:28.891Z,98900.09
2022-08-18T05:10:33.198Z,98899.66
2022-08-18T05:11:35.885Z,98901.86
2022-08-18T05:12:38.556Z,98905.98
2022-08-18T05:13:41.102Z,98903.35
2022-08-18T05:14:44.183Z,98897.98
2022-08-18T05:16:09.077Z,98901.03
2022-08-18T05:16:51.990Z,98895.22
2022-08-18T05:17:55.039Z,98894.16
2022-08-18T05:18:57.983Z,98894.72
2022-08-18T05:20:01.723Z,98897.91
2022-08-18T05:21:04.809Z,98896.28
2022-08-18T05:22:09.631Z,98904.94
2022-08-18T05:23:14.142Z,98892.17
2022-08-18T05:24:17.120Z,98893.61
2022-08-18T05:25:19.806Z,98896.23
2022-08-18T05:26:22.666Z,98885.70
2022-08-18T05:27:25.325Z,98894.17
2022-08-18T05:28:28.024Z,98893.48
2022-08-18T05:29:30.629Z,98887.87
2022-08-18T05:30:36.834Z,98885.77
2022-08-18T05:31:39.443Z,98891.16
2022-08-18T05:32:49.241Z,98895.27
2022-08-18T05:33:46.564Z,98890.20
2022-08-18T05:34:49.232Z,98888.31
2022-08-18T05:35:51.856Z,98894.64
2022-08-18T05:36:54.675Z,98902.33
2022-08-18T05:37:57.352Z,98898.33
2022-08-18T05:39:00.030Z,98907.77
2022-08-18T05:40:07.502Z,98901.55
2022-08-18T05:41:07.462Z,98902.09
2022-08-18T05:42:10.333Z,98906.55
2022-08-18T05:43:13.149Z,98910.92
2022-08-18T05:44:16.495Z,98909.58
2022-08-18T05:45:19.094Z,98912.00
2022-08-18T05:46:23.518Z,98910.13
2022-08-18T05:47:26.174Z,98898.83
2022-08-18T05:48:28.750Z,98903.33
2022-08-18T05:49:31.441Z,98905.58
2022-08-18T05:50:35.536Z,98907.75
2022-08-18T05:51:38.185Z,98909.63
2022-08-18T05:52:40.964Z,98912.97
2022-08-18T05:53:43.688Z,98907.89
2022-08-18T05:54:46.407Z,98907.68
2022-08-18T05:55:49.074Z,98918.53
2022-08-18T05:56:52.246Z,98914.48
2022-08-18T05:57:54.819Z,98917.48
2022-08-18T05:58:57.507Z,98911.01
2022-08-18T06:00:00.264Z,98917.50
2022-08-18T06:01:02.925Z,98915.88
2022-08-18T06:02:05.638Z,98916.19
2022-08-18T06:03:08.419Z,98908.05
2022-08-18T06:04:11.550Z,98913.48
2022-08-18T06:05:14.231Z,98914.03
2022-08-18T06:06:17.400Z,98913.20
2022-08-18T06:07:20.087Z,98913.20
2022-08-18T06:08:22.736Z,98910.75
2022-08-18T06:09:25.261Z,98924.56
2022-08-18T06:10:28.686Z,98911.48
2022-08-18T06:11:31.360Z,98914.13
2022-08-18T06:12:37.624Z,98914.13
2022-08-18T06:13:38.543Z,98914.43
2022-08-18T06:14:41.208Z,98921.26
2022-08-18T06:15:43.879Z,98915.09
2022-08-18T06:16:48.658Z,98915.62
2022-08-18T06:17:51.435Z,98914.23
2022-08-18T06:18:54.347Z,98913.38
2022-08-18T06:19:57.016Z,98916.34
2022-08-18T06:20:59.886Z,98915.20
2022-08-18T06:22:02.659Z,98918.73
2022-08-18T06:23:05.330Z,98920.07
2022-08-18T06:24:07.977Z,98922.88
2022-08-18T06:25:10.574Z,98925.03
2022-08-18T06:26:13.910Z,98926.13
2022-08-18T06:27:16.527Z,98921.19
2022-08-18T06:28:19.294Z,98923.30
2022-08-18T06:29:21.961Z,98925.00
2022-08-18T06:30:24.936Z,98926.11
2022-08-18T06:31:29.566Z,98920.05
2022-08-18T06:32:32.425Z,98914.04
2022-08-18T06:33:35.096Z,98920.02
2022-08-18T06:34:37.766Z,98922.42
2022-08-18T06:35:40.331Z,98921.52
2022-08-18T06:36:43.921Z,98920.91
2022-08-18T06:37:46.591Z,98926.48
2022-08-18T06:38:49.192Z,98918.46
2022-08-18T06:39:51.873Z,98925.56
2022-08-18T06:40:55.027Z,98919.67
2022-08-18T06:41:57.878Z,98918.93
2022-08-18T06:43:02.115Z,98924.53
2022-08-18T06:44:05.434Z,98923.95
2022-08-18T06:45:08.146Z,98919.84
2022-08-18T06:46:11.430Z,98926.52
2022-08-18T06:47:14.134Z,98923.95
2022-08-18T06:48:16.800Z,98922.02
2022-08-18T06:49:19.529Z,98922.78
2022-08-18T06:50:23.843Z,98918.23
2022-08-18T06:51:26.466Z,98921.27
2022-08-18T06:52:29.093Z,98921.27
2022-08-18T06:53:31.706Z,98928.32
2022-08-18T06:54:34.311Z,98915.39
2022-08-18T06:55:36.939Z,98923.36
2022-08-18T06:56:39.917Z,98921.20
2022-08-18T06:57:42.531Z,98918.41
2022-08-18T06:58:46.374Z,98922.55
2022-08-18T06:59:49.706Z,98915.44
2022-08-18T07:00:54.990Z,98916.30
2022-08-18T07:01:57.298Z,98914.32
2022-08-18T07:02:59.995Z,98914.39
2022-08-18T07:04:02.534Z,98918.27
2022-08-18T07:05:05.265Z,98919.83
2022-08-18T07:06:08.282Z,98916.13
2022-08-18T07:07:10.949Z,98909.25
2022-08-18T07:08:13.533Z,98911.09
2022-08-18T07:09:16.286Z,98905.03
2022-08-18T07:10:19.573Z,98904.94
2022-08-18T07:11:22.204Z,98898.95
2022-08-18T07:12:29.043Z,98906.02
2022-08-18T07:13:30.293Z,98899.19
2022-08-18T07:14:33.018Z,98900.35
2022-08-18T07:15:35.689Z,98895.28
2022-08-18T07:16:57.736Z,98900.37
2022-08-18T07:17:44.162Z,98897.02
2022-08-18T07:18:46.812Z,98897.28
2022-08-18T07:19:49.389Z,98890.76
2022-08-18T07:20:52.747Z,98892.28
2022-08-18T07:21:55.385Z,98892.89
2022-08-18T07:22:59.762Z,98892.53
2022-08-18T07:24:23.577Z,98894.64
2022-08-18T07:25:06.975Z,98898.27
2022-08-18T07:26:10.366Z,98891.91
2022-08-18T07:27:13.027Z,98887.87
2022-08-18T07:28:15.595Z,98890.17
2022-08-18T07:29:18.263Z,98883.45
2022-08-18T07:30:21.342Z,98888.09
2022-08-18T07:31:24.178Z,98889.80
2022-08-18T07:32:26.661Z,98894.95
2022-08-18T07:33:29.248Z,98882.81
2022-08-18T07:34:32.045Z,98886.25
2022-08-18T07:35:34.605Z,98888.00
2022-08-18T07:36:37.665Z,98886.17
2022-08-18T07:37:40.244Z,98882.59
2022-08-18T07:38:44.153Z,98891.16
2022-08-18T07:39:48.526Z,98892.77
2022-08-18T07:40:51.720Z,98899.40
2022-08-18T07:41:54.698Z,98884.62
2022-08-18T07:43:01.261Z,98892.23
2022-08-18T07:44:03.007Z,98891.77
2022-08-18T07:45:05.679Z,98891.58
2022-08-18T07:46:09.379Z,98890.57
2022-08-18T07:47:12.018Z,98886.48
2022-08-18T07:48:37.752Z,98878.98
2022-08-18T07:49:21.979Z,98886.64
2022-08-18T07:50:57.565Z,98887.32
2022-08-18T07:51:33.303Z,98890.57
2022-08-18T07:52:44.122Z,98888.23
2022-08-18T07:53:38.302Z,98891.83
2022-08-18T07:54:50.151Z,98887.65
2022-08-18T07:55:45.890Z,98886.48
2022-08-18T07:56:48.967Z,98889.14
2022-08-18T07:57:51.637Z,98888.76
2022-08-18T07:58:54.203Z,98885.55
2022-08-18T07:59:57.902Z,98891.77
2022-08-18T08:01:01.019Z,98883.80
2022-08-18T08:02:04.251Z,98891.09
2022-08-18T08:03:07.448Z,98888.75
2022-08-18T08:04:10.424Z,98887.72
2022-08-18T08:05:14.881Z,98894.14
2022-08-18T08:06:17.816Z,98897.20
2022-08-18T08:07:24.330Z,98888.58
2022-08-18T08:08:25.744Z,98894.61
2022-08-18T08:09:28.680Z,98884.61
2022-08-18T08:10:32.571Z,98893.84
2022-08-18T08:11:35.345Z,98893.80
2022-08-18T08:12:38.831Z,98887.06
2022-08-18T08:13:54.775Z,98890.66
2022-08-18T08:14:45.818Z,98888.13
2022-08-18T08:15:48.683Z,98886.71
2022-08-18T08:16:51.862Z,98882.16
2022-08-18T08:17:54.666Z,98882.34
2022-08-18T08:18:57.407Z,98886.50
2022-08-18T08:20:01.560Z,98892.17
2022-08-18T08:21:04.700Z,98884.50
2022-08-18T08:22:08.388Z,98888.52
2022-08-18T08:23:11.055Z,98878.22
2022-08-18T08:24:13.724Z,98878.39
2022-08-18T08:25:42.608Z,98879.07
2022-08-18T08:26:22.747Z,98879.87
2022-08-18T08:27:25.419Z,98885.55
2022-08-18T08:28:27.941Z,98886.72
2022-08-18T08:29:30.489Z,98878.89
2022-08-18T08:30:34.309Z,98884.69
2022-08-18T08:31:38.416Z,98881.62
2022-08-18T08:32:41.219Z,98871.30
2022-08-18T08:33:43.789Z,98880.48
2022-08-18T08:34:46.356Z,98876.79
2022-08-18T08:35:50.618Z,98870.00
2022-08-18T08:36:53.644Z,98870.81
2022-08-18T08:37:58.424Z,98876.63
2022-08-18T08:39:00.881Z,98877.67
2022-08-18T08:40:03.963Z,98882.51
2022-08-18T08:41:06.876Z,98874.03
2022-08-18T08:42:31.509Z,98875.38
2022-08-18T08:43:14.578Z,98879.45
2022-08-18T08:44:17.342Z,98880.31
2022-08-18T08:45:20.025Z,98869.05
2022-08-18T08:46:24.729Z,98876.30
2022-08-18T08:47:27.498Z,98871.31
2022-08-18T08:48:30.175Z,98872.73
2022-08-18T08:49:33.260Z,98870.14
2022-08-18T08:50:36.437Z,98881.13
2022-08-18T08:51:38.962Z,98877.27
2022-08-18T08:52:41.729Z,98876.80
2022-08-18T08:53:44.337Z,98874.71
2022-08-18T08:54:47.004Z,98875.64
2022-08-18T08:55:49.675Z,98876.59
2022-08-18T08:56:52.753Z,98874.45
2022-08-18T08:57:55.424Z,98876.41
2022-08-18T08:58:58.053Z,98873.55
2022-08-18T09:00:00.682Z,98882.36
2022-08-18T09:01:03.225Z,98874.55
2022-08-18T09:02:05.847Z,98876.95
2022-08-18T09:03:08.872Z,98870.49
2022-08-18T09:04:11.457Z,98880.30
2022-08-18T09:05:14.005Z,98881.05
2022-08-18T09:06:18.108Z,98885.42
2022-08-18T09:07:20.969Z,98877.34
2022-08-18T09:08:23.549Z,98876.13
2022-08-18T09:09:26.217Z,98878.32
2022-08-18T09:10:29.302Z,98875.81
2022-08-18T09:11:32.314Z,98879.46
2022-08-18T09:12:35.049Z,98880.76
2022-08-18T09:13:37.822Z,98873.40
2022-08-18T09:14:42.121Z,98877.34
2022-08-18T09:15:44.758Z,98870.70
2022-08-18T09:16:48.026Z,98874.95
2022-08-18T09:17:50.735Z,98877.22
2022-08-18T09:18:53.417Z,98875.02
2022-08-18T09:19:55.981Z,98873.45
2022-08-18T09:20:59.018Z,98871.52
2022-08-18T09:22:01.732Z,98880.16
2022-08-18T09:23:04.705Z,98875.48
2022-08-18T09:24:07.380Z,98871.30
2022-08-18T09:25:10.043Z,98875.67
2022-08-18T09:26:13.329Z,98872.47
2022-08-18T09:27:15.897Z,98876.42
2022-08-18T09:28:18.668Z,98881.05
2022-08-18T09:29:21.235Z,98880.67
2022-08-18T09:30:25.539Z,98881.65
2022-08-18T09:31:31.742Z,98876.52
2022-08-18T09:32:33.546Z,98879.77
2022-08-18T09:33:36.214Z,98877.55
2022-08-18T09:34:38.990Z,98882.05
2022-08-18T09:35:41.654Z,98877.31
2022-08-18T09:36:44.589Z,98874.08
2022-08-18T09:37:47.204Z,98874.08
2022-08-18T09:38:51.710Z,98877.31
2022-08-18T09:39:56.645Z,98876.76
2022-08-18T09:41:03.049Z,98874.54
2022-08-18T09:42:04.332Z,98876.76
2022-08-18T09:43:08.966Z,98871.19
2022-08-18T09:44:21.467Z,98869.64
2022-08-18T09:45:16.489Z,98863.79
2022-08-18T09:46:21.104Z,98871.67
2022-08-18T09:47:27.376Z,98869.42
2022-08-18T09:48:30.611Z,98868.64
2022-08-18T09:49:38.181Z,98867.64
2022-08-18T09:50:39.597Z,98871.32
2022-08-18T09:51:42.272Z,98868.38
2022-08-18T09:52:46.784Z,98869.16
2022-08-18T09:53:50.789Z,98871.41
2022-08-18T09:54:54.950Z,98870.09
2022-08-18T09:56:01.381Z,98873.22
2022-08-18T09:57:02.283Z,98859.50
2022-08-18T09:58:06.585Z,98864.08
2022-08-18T09:59:10.756Z,98869.08
2022-08-18T10:00:14.377Z,98865.34
2022-08-18T10:01:17.882Z,98861.09
2022-08-18T10:03:30.978Z,98862.23
2022-08-18T10:04:30.381Z,98861.50
2022-08-18T10:05:33.059Z,98860.30
2022-08-18T10:06:36.234Z,98867.34
2022-08-18T10:07:43.272Z,98863.66
2022-08-18T10:08:44.540Z,98866.39
2022-08-18T10:09:47.317Z,98869.16
2022-08-18T10:11:01.300Z,98858.59
2022-08-18T10:11:55.320Z,98863.10
2022-08-18T10:12:58.677Z,98857.06
2022-08-18T10:14:01.981Z,98864.20
2022-08-18T10:15:04.654Z,98853.50
2022-08-18T10:16:10.950Z,98861.14
2022-08-18T10:17:23.338Z,98851.55
2022-08-18T10:18:16.548Z,98857.45
2022-08-18T10:19:20.475Z,98857.27
2022-08-18T10:20:26.693Z,98857.78
2022-08-18T10:21:31.497Z,98866.62
2022-08-18T10:22:33.812Z,98854.06
2022-08-18T10:23:38.477Z,98865.28
2022-08-18T10:24:42.297Z,98863.20
2022-08-18T10:25:45.784Z,98856.21
2022-08-18T10:26:54.262Z,98854.38
2022-08-18T10:27:55.124Z,98853.68
2022-08-18T10:28:57.788Z,98858.78
2022-08-18T10:30:00.350Z,98858.08
2022-08-18T10:31:06.227Z,98856.35
2022-08-18T10:32:07.434Z,98855.48
2022-08-18T10:33:18.178Z,98855.16
2022-08-18T10:35:23.288Z,98855.09
2022-08-18T10:36:25.881Z,98854.85
2022-08-18T10:37:30.361Z,98855.94
2022-08-18T10:38:33.179Z,98862.23
2022-08-18T10:39:41.211Z,98852.95
2022-08-18T10:40:40.891Z,98852.57
2022-08-18T10:41:43.641Z,98847.73
2022-08-18T10:42:46.930Z,98847.23
2022-08-18T10:43:55.929Z,98847.91
2022-08-18T10:44:55.129Z,98842.21
2022-08-18T10:46:24.359Z,98844.83
2022-08-18T10:47:03.441Z,98833.30
2022-08-18T10:48:16.816Z,98840.38
2022-08-18T10:49:12.216Z,98846.02
2022-08-18T10:50:16.523Z,98850.91
2022-08-18T10:51:21.295Z,98847.44
2022-08-18T10:52:23.849Z,98849.45
2022-08-18T10:53:44.264Z,98849.55
2022-08-18T10:54:31.030Z,98840.93
2022-08-18T10:55:48.944Z,98842.52
2022-08-18T10:56:38.421Z,98840.13
2022-08-18T10:57:41.100Z,98837.27
2022-08-18T10:58:44.131Z,98838.42
2022-08-18T10:59:49.177Z,98850.55
2022-08-18T11:00:51.590Z,98846.82
2022-08-18T11:01:54.329Z,98842.44
2022-08-18T11:03:02.553Z,98843.00
2022-08-18T11:04:08.816Z,98848.98
2022-08-18T11:05:06.608Z,98838.66
2022-08-18T11:06:11.653Z,98844.98
2022-08-18T11:07:18.390Z,98842.90
2022-08-18T11:08:20.700Z,98844.28
2022-08-18T11:09:23.453Z,98848.78
2022-08-18T11:10:29.888Z,98852.62
2022-08-18T11:12:37.125Z,98838.27
2022-08-18T11:13:41.197Z,98842.02
2022-08-18T11:14:43.820Z,98843.72
2022-08-18T11:15:46.446Z,98837.84
2022-08-18T11:16:49.519Z,98837.05
2022-08-18T11:17:53.886Z,98834.79
2022-08-18T11:18:56.695Z,98829.91
2022-08-18T11:20:02.848Z,98831.52
2022-08-18T11:21:08.103Z,98832.56
2022-08-18T11:22:10.935Z,98831.95
2022-08-18T11:23:14.747Z,98834.92
2022-08-18T11:24:17.726Z,98829.71
2022-08-18T11:25:21.026Z,98834.29
2022-08-18T11:26:25.209Z,98828.42
2022-08-18T11:27:28.499Z,98834.54
2022-08-18T11:28:32.537Z,98833.39
2022-08-18T11:29:35.401Z,98837.94
2022-08-18T11:30:40.218Z,98833.56
2022-08-18T11:31:43.161Z,98834.78
2022-08-18T11:32:55.390Z,98833.05
2022-08-18T11:33:52.291Z,98835.27
2022-08-18T11:34:55.573Z,98839.45
2022-08-18T11:35:58.234Z,98824.30
2022-08-18T11:37:01.736Z,98829.48
2022-08-18T11:38:04.301Z,98826.66
2022-08-18T11:39:07.072Z,98816.67
2022-08-18T11:40:14.065Z,98821.55
2022-08-18T11:41:17.377Z,98825.79
2022-08-18T11:42:24.919Z,98823.69
2022-08-18T11:43:25.532Z,98828.70
2022-08-18T11:44:29.843Z,98832.06
2022-08-18T11:45:32.512Z,98824.57
2022-08-18T11:46:37.104Z,98823.55
2022-08-18T11:47:40.100Z,98825.34
2022-08-18T11:49:47.077Z,98823.03
2022-08-18T11:50:54.520Z,98818.23
2022-08-18T11:51:54.315Z,98826.47
2022-08-18T11:52:57.473Z,98823.55
2022-08-18T11:54:00.700Z,98818.32
2022-08-18T11:56:13.282Z,98822.47
2022-08-18T11:57:12.922Z,98821.29
2022-08-18T11:58:17.380Z,98818.96
2022-08-18T11:59:21.855Z,98817.21
2022-08-18T12:00:25.507Z,98829.09
2022-08-18T12:01:29.293Z,98821.30
2022-08-18T12:02:33.887Z,98823.29
2022-08-18T12:03:37.037Z,98817.43
2022-08-18T12:04:39.699Z,98822.51
2022-08-18T12:05:42.392Z,98820.82
2022-08-18T12:06:47.189Z,98817.28
2022-08-18T12:08:57.308Z,98811.87
2022-08-18T12:11:27.314Z,98816.52
2022-08-18T12:12:08.683Z,98816.69
2022-08-18T12:13:13.093Z,98816.48
2022-08-18T12:14:31.764Z,98818.58
2022-08-18T12:15:23.852Z,98817.06
2022-08-18T12:16:24.935Z,98817.52
2022-08-18T12:17:28.010Z,98824.21
2022-08-18T12:18:32.528Z,98817.97
2022-08-18T12:19:35.558Z,98818.91
2022-08-18T12:20:38.783Z,98823.25
2022-08-18T12:21:41.309Z,98816.78
2022-08-18T12:22:44.165Z,98830.44
2022-08-18T12:23:52.184Z,98826.23
2022-08-18T12:24:51.312Z,98827.92
2022-08-18T12:25:53.872Z,98822.48
2022-08-18T12:26:56.949Z,98823.47
2022-08-18T12:28:01.575Z,98816.53
2022-08-18T12:29:04.191Z,98825.11
2022-08-18T12:30:09.160Z,98815.10